createdAt,value
2018-05-29T00:00:00.290Z,6.03
2018-05-29T00:02:26.254Z,6.10
2018-05-29T00:04:52.994Z,5.67
2018-05-29T00:07:19.715Z,5.70
2018-05-29T00:09:45.723Z,5.95
2018-05-29T00:12:11.734Z,5.83
2018-05-29T00:14:37.713Z,6.07
2018-05-29T00:17:03.677Z,5.63
2018-05-29T00:19:29.636Z,6.10
2018-05-29T00:21:56.389Z,5.37
2018-05-29T00:24:23.134Z,5.60
2018-05-29T00:26:49.922Z,5.90
2018-05-29T00:29:15.878Z,5.87
2018-05-29T00:31:41.843Z,5.53
2018-05-29T00:34:07.847Z,6.37
2018-05-29T00:36:33.817Z,6.17
2018-05-29T00:38:59.782Z,5.87
2018-05-29T00:41:26.490Z,6.00
2018-05-29T00:43:52.444Z,5.97
2018-05-29T00:46:18.394Z,6.33
2018-05-29T00:48:45.092Z,6.07
2018-05-29T00:51:11.059Z,6.40
2018-05-29T00:53:37.022Z,5.73
2018-05-29T00:56:03.738Z,5.83
2018-05-29T00:58:29.707Z,5.87
2018-05-29T01:00:56.451Z,6.07
2018-05-29T01:03:22.523Z,6.90
2018-05-29T01:05:48.510Z,6.20
2018-05-29T01:08:14.467Z,6.30
2018-05-29T01:10:41.194Z,5.93
2018-05-29T01:13:07.206Z,6.23
2018-05-29T01:15:33.166Z,6.13
2018-05-29T01:17:59.123Z,6.30
2018-05-29T01:20:25.830Z,5.93
2018-05-29T01:22:51.779Z,6.77
2018-05-29T01:25:17.839Z,6.87
2018-05-29T01:27:44.656Z,6.17
2018-05-29T01:30:10.692Z,6.83
2018-05-29T01:32:36.670Z,6.27
2018-05-29T01:35:03.382Z,7.07
2018-05-29T01:37:29.341Z,6.80
2018-05-29T01:39:55.315Z,6.40
2018-05-29T01:42:21.303Z,6.50
2018-05-29T01:44:47.282Z,6.30
2018-05-29T01:47:13.385Z,6.53
2018-05-29T01:49:39.981Z,6.93
2018-05-29T01:52:05.943Z,7.10
2018-05-29T01:54:31.912Z,7.00
2018-05-29T01:56:57.879Z,6.50
2018-05-29T01:59:23.841Z,6.90
2018-05-29T02:01:49.798Z,7.00
2018-05-29T02:04:15.844Z,6.77
2018-05-29T02:06:41.914Z,6.80
2018-05-29T02:09:08.623Z,6.93
2018-05-29T02:11:34.607Z,6.93
2018-05-29T02:14:00.580Z,7.40
2018-05-29T02:16:26.550Z,7.23
2018-05-29T02:18:52.515Z,7.53
2018-05-29T02:21:18.484Z,7.13
2018-05-29T02:23:44.539Z,7.20
2018-05-29T02:26:10.543Z,6.90
2018-05-29T02:28:36.523Z,6.57
2018-05-29T02:31:02.491Z,6.80
2018-05-29T02:33:28.486Z,7.27
2018-05-29T02:35:55.919Z,7.60
2018-05-29T02:38:21.887Z,7.10
2018-05-29T02:40:47.972Z,7.53
2018-05-29T02:43:14.078Z,7.40
2018-05-29T02:45:40.352Z,7.80
2018-05-29T02:48:06.331Z,7.33
2018-05-29T02:50:32.298Z,8.33
2018-05-29T02:52:59.000Z,7.57
2018-05-29T02:55:24.970Z,7.77
2018-05-29T02:57:50.927Z,7.40
2018-05-29T03:00:16.911Z,7.87
2018-05-29T03:02:42.917Z,7.80
2018-05-29T03:05:08.897Z,7.83
2018-05-29T03:07:34.863Z,8.20
2018-05-29T03:10:01.575Z,8.30
2018-05-29T03:12:27.530Z,8.10
2018-05-29T03:14:53.495Z,8.27
2018-05-29T03:17:20.194Z,7.93
2018-05-29T03:19:46.198Z,8.77
2018-05-29T03:22:12.215Z,9.20
2018-05-29T03:24:38.927Z,8.60
2018-05-29T03:27:04.931Z,8.27
2018-05-29T03:29:30.894Z,7.87
2018-05-29T03:31:56.883Z,8.33
2018-05-29T03:34:22.881Z,7.87
2018-05-29T03:36:48.835Z,8.20
2018-05-29T03:39:15.567Z,8.67
2018-05-29T03:41:42.521Z,7.83
2018-05-29T03:44:08.472Z,8.33
2018-05-29T03:46:34.468Z,8.73
2018-05-29T03:49:00.458Z,8.63
2018-05-29T03:51:27.200Z,8.97
2018-05-29T03:53:53.135Z,7.87
2018-05-29T03:56:19.110Z,8.67
2018-05-29T03:58:45.103Z,8.30
2018-05-29T04:01:11.109Z,8.60
2018-05-29T04:03:37.065Z,9.33
2018-05-29T04:06:03.047Z,8.90
2018-05-29T04:08:29.895Z,9.50
2018-05-29T04:10:55.858Z,9.67
2018-05-29T04:13:21.819Z,8.97
2018-05-29T04:15:47.782Z,8.80
2018-05-29T04:18:14.506Z,9.50
2018-05-29T04:20:40.484Z,9.13
2018-05-29T04:23:06.455Z,9.37
2018-05-29T04:25:32.410Z,9.47
2018-05-29T04:27:58.381Z,9.10
2018-05-29T04:30:25.110Z,10.48
2018-05-29T04:32:51.074Z,10.63
2018-05-29T04:35:17.780Z,10.02
2018-05-29T04:37:43.809Z,10.90
2018-05-29T04:40:09.793Z,10.50
2018-05-29T04:42:36.515Z,10.35
2018-05-29T04:45:02.493Z,10.30
2018-05-29T04:47:28.457Z,10.73
2018-05-29T04:49:54.415Z,9.93
2018-05-29T04:52:20.379Z,10.05
2018-05-29T04:54:47.118Z,9.15
2018-05-29T04:57:13.156Z,9.95
2018-05-29T04:59:39.115Z,9.07
2018-05-29T05:02:05.835Z,9.57
2018-05-29T05:04:31.802Z,9.48
2018-05-29T05:06:58.503Z,9.63
2018-05-29T05:09:24.466Z,9.13
2018-05-29T05:11:50.442Z,10.25
2018-05-29T05:14:16.511Z,9.13
2018-05-29T05:16:42.510Z,9.70
2018-05-29T05:19:08.489Z,9.35
2018-05-29T05:21:34.451Z,9.60
2018-05-29T05:24:01.167Z,9.95
2018-05-29T05:26:27.158Z,9.73
2018-05-29T05:28:53.123Z,10.30
2018-05-29T05:31:19.082Z,9.18
2018-05-29T05:33:45.120Z,9.68
2018-05-29T05:36:11.239Z,9.80
2018-05-29T05:38:37.186Z,10.18
2018-05-29T05:41:03.148Z,9.75
2018-05-29T05:43:29.123Z,10.15
2018-05-29T05:45:55.088Z,9.63
2018-05-29T05:48:21.059Z,9.20
2018-05-29T05:50:47.766Z,9.73
2018-05-29T05:53:13.750Z,9.13
2018-05-29T05:55:40.458Z,9.88
2018-05-29T05:58:06.417Z,8.68
2018-05-29T06:00:32.401Z,9.82
2018-05-29T06:02:58.381Z,9.57
2018-05-29T06:05:24.334Z,9.32
2018-05-29T06:07:51.043Z,10.32
2018-05-29T06:10:17.048Z,8.95
2018-05-29T06:12:43.051Z,10.13
2018-05-29T06:15:09.766Z,9.63
2018-05-29T06:17:35.719Z,12.27
2018-05-29T06:20:01.697Z,10.00
2018-05-29T06:22:28.386Z,10.38
2018-05-29T06:24:54.343Z,9.77
2018-05-29T06:27:20.299Z,9.43
2018-05-29T06:29:47.030Z,8.85
2018-05-29T06:32:13.035Z,9.55
2018-05-29T06:34:38.999Z,9.15
2018-05-29T06:37:05.091Z,9.95
2018-05-29T06:39:31.055Z,9.25
2018-05-29T06:41:57.019Z,8.95
2018-05-29T06:44:22.999Z,9.25
2018-05-29T06:46:48.998Z,9.15
2018-05-29T06:49:14.996Z,9.18
2018-05-29T06:51:40.998Z,9.30
2018-05-29T06:54:06.984Z,8.73
2018-05-29T06:56:32.942Z,9.73
2018-05-29T06:58:58.904Z,9.18
2018-05-29T07:01:24.854Z,9.10
2018-05-29T07:03:50.845Z,9.35
2018-05-29T07:06:17.551Z,8.80
2018-05-29T07:08:43.558Z,8.52
2018-05-29T07:11:09.506Z,8.20
2018-05-29T07:13:35.483Z,8.57
2018-05-29T07:16:01.454Z,8.98
2018-05-29T07:18:28.158Z,9.38
2018-05-29T07:20:54.139Z,8.68
2018-05-29T07:23:20.843Z,9.15
2018-05-29T07:25:46.823Z,8.80
2018-05-29T07:28:13.564Z,8.60
2018-05-29T07:30:39.535Z,8.52
2018-05-29T07:33:05.530Z,9.60
2018-05-29T07:35:31.474Z,9.05
2018-05-29T07:37:58.190Z,8.20
2018-05-29T07:40:24.150Z,8.98
2018-05-29T07:42:50.126Z,8.23
2018-05-29T07:45:17.378Z,8.57
2018-05-29T07:47:43.358Z,8.57
2018-05-29T07:50:09.310Z,9.02
2018-05-29T07:52:35.264Z,9.38
2018-05-29T07:55:01.223Z,9.30
2018-05-29T07:57:27.190Z,9.45
2018-05-29T07:59:53.175Z,9.98
2018-05-29T08:02:19.923Z,10.90
2018-05-29T08:04:45.926Z,9.40
2018-05-29T08:07:11.997Z,9.85
2018-05-29T08:09:38.725Z,10.27
2018-05-29T08:12:04.693Z,9.82
2018-05-29T08:14:31.407Z,10.27
2018-05-29T08:16:57.370Z,9.10
2018-05-29T08:19:23.334Z,10.25
2018-05-29T08:21:49.310Z,10.35
2018-05-29T08:24:15.320Z,8.65
2018-05-29T08:26:41.406Z,9.05
2018-05-29T08:29:07.363Z,8.60
2018-05-29T08:31:34.067Z,8.15
2018-05-29T08:34:00.023Z,8.63
2018-05-29T08:36:25.991Z,8.48
2018-05-29T08:38:51.954Z,8.25
2018-05-29T08:41:17.986Z,8.25
2018-05-29T08:43:43.983Z,9.02
2018-05-29T08:46:10.743Z,8.68
2018-05-29T08:48:36.739Z,8.35
2018-05-29T08:51:02.763Z,8.18
2018-05-29T08:53:28.731Z,8.50
2018-05-29T08:55:55.426Z,8.10
2018-05-29T08:58:21.399Z,9.52
2018-05-29T09:00:47.403Z,8.93
2018-05-29T09:03:13.470Z,8.70
2018-05-29T09:05:39.439Z,9.07
2018-05-29T09:08:06.147Z,8.25
2018-05-29T09:10:32.106Z,8.65
2018-05-29T09:12:58.810Z,9.50
2018-05-29T09:15:24.776Z,11.07
2018-05-29T09:17:50.743Z,11.23
2018-05-29T09:20:16.725Z,9.95
2018-05-29T09:22:42.737Z,10.27
2018-05-29T09:25:08.714Z,12.15
2018-05-29T09:27:34.671Z,10.90
2018-05-29T09:30:00.643Z,9.93
2018-05-29T09:32:26.615Z,10.43
2018-05-29T09:34:52.571Z,12.05
2018-05-29T09:37:19.051Z,10.30
2018-05-29T09:39:45.759Z,10.63
2018-05-29T09:42:11.748Z,12.50
2018-05-29T09:44:37.729Z,12.10
2018-05-29T09:47:03.703Z,13.52
2018-05-29T09:49:30.412Z,14.68
2018-05-29T09:51:56.396Z,12.63
2018-05-29T09:54:23.135Z,12.93
2018-05-29T09:56:49.098Z,15.15
2018-05-29T09:59:15.864Z,13.90
2018-05-29T10:01:41.936Z,13.73
2018-05-29T10:04:07.914Z,12.30
2018-05-29T10:06:34.655Z,12.45
2018-05-29T10:09:00.627Z,12.05
2018-05-29T10:11:26.595Z,10.93
2018-05-29T10:13:52.551Z,11.43
2018-05-29T10:16:18.569Z,11.90
2018-05-29T10:18:44.595Z,12.50
2018-05-29T10:21:10.571Z,11.98
2018-05-29T10:23:37.283Z,11.85
2018-05-29T10:26:03.239Z,11.12
2018-05-29T10:28:29.206Z,12.05
2018-05-29T10:30:55.977Z,10.70
2018-05-29T10:33:21.900Z,12.37
2018-05-29T10:35:48.622Z,12.45
2018-05-29T10:38:15.375Z,11.60
2018-05-29T10:40:42.041Z,12.35
2018-05-29T10:43:08.738Z,12.30
2018-05-29T10:45:34.708Z,10.60
2018-05-29T10:48:00.786Z,12.10
2018-05-29T10:50:27.488Z,13.02
2018-05-29T10:52:53.458Z,12.75
2018-05-29T10:55:20.171Z,11.45
2018-05-29T10:57:46.270Z,11.48
2018-05-29T11:00:12.494Z,12.07
2018-05-29T11:02:39.425Z,13.30
2018-05-29T11:05:05.418Z,11.65
2018-05-29T11:07:31.390Z,11.15
2018-05-29T11:09:57.394Z,11.57
2018-05-29T11:12:23.375Z,11.27
2018-05-29T11:14:49.341Z,12.20
2018-05-29T11:17:16.070Z,11.15
2018-05-29T11:19:42.940Z,11.90
2018-05-29T11:22:08.947Z,11.32
2018-05-29T11:24:34.912Z,10.27
2018-05-29T11:27:01.637Z,10.60
2018-05-29T11:29:27.597Z,10.23
2018-05-29T11:31:54.314Z,9.57
2018-05-29T11:34:20.279Z,9.40
2018-05-29T11:36:47.003Z,8.48
2018-05-29T11:39:13.006Z,9.57
2018-05-29T11:41:38.971Z,10.00
2018-05-29T11:44:04.938Z,9.02
2018-05-29T11:46:31.645Z,10.18
2018-05-29T11:48:57.691Z,10.35
2018-05-29T11:51:23.654Z,10.27
2018-05-29T11:53:49.626Z,12.60
2018-05-29T11:56:15.668Z,11.15
2018-05-29T11:58:41.662Z,11.60
2018-05-29T12:01:08.358Z,10.13
2018-05-29T12:03:34.322Z,10.65
2018-05-29T12:06:00.288Z,10.30
2018-05-29T12:08:26.998Z,9.60
2018-05-29T12:10:52.987Z,9.77
2018-05-29T12:13:19.699Z,8.80
2018-05-29T12:15:45.750Z,10.23
2018-05-29T12:18:11.766Z,9.38
2018-05-29T12:20:37.742Z,8.63
2018-05-29T12:23:04.464Z,9.73
2018-05-29T12:25:30.439Z,9.35
2018-05-29T12:27:57.143Z,9.45
2018-05-29T12:30:23.107Z,8.80
2018-05-29T12:32:49.079Z,10.32
2018-05-29T12:35:15.083Z,9.10
2018-05-29T12:37:41.838Z,8.57
2018-05-29T12:40:08.567Z,8.95
2018-05-29T12:42:34.548Z,8.18
2018-05-29T12:45:00.505Z,9.00
2018-05-29T12:47:26.463Z,8.88
2018-05-29T12:49:52.551Z,8.75
2018-05-29T12:52:18.592Z,8.43
2018-05-29T12:54:44.610Z,7.87
2018-05-29T12:57:11.355Z,8.20
2018-05-29T12:59:37.322Z,8.50
2018-05-29T13:02:03.291Z,8.70
2018-05-29T13:04:29.278Z,8.15
2018-05-29T13:06:55.989Z,9.23
2018-05-29T13:09:22.019Z,9.43
2018-05-29T13:11:48.034Z,10.18
2018-05-29T13:14:14.063Z,10.15
2018-05-29T13:16:40.092Z,10.57
2018-05-29T13:19:06.003Z,10.23
2018-05-29T13:21:32.716Z,10.55
2018-05-29T13:23:58.674Z,10.77
2018-05-29T13:26:24.635Z,10.25
2018-05-29T13:28:51.339Z,10.95
2018-05-29T13:31:17.315Z,11.95
2018-05-29T13:33:44.082Z,10.77
2018-05-29T13:36:10.044Z,11.50
2018-05-29T13:38:36.020Z,11.55
2018-05-29T13:41:01.977Z,11.88
2018-05-29T13:43:28.706Z,12.90
2018-05-29T13:45:54.668Z,12.00
2018-05-29T13:48:21.415Z,11.05
2018-05-29T13:50:48.275Z,11.07
2018-05-29T13:53:15.062Z,10.75
2018-05-29T13:55:41.027Z,11.98
2018-05-29T13:58:06.998Z,10.48
2018-05-29T14:00:33.690Z,11.07
2018-05-29T14:02:59.658Z,9.43
2018-05-29T14:05:25.627Z,8.90
2018-05-29T14:07:51.607Z,8.20
2018-05-29T14:10:17.692Z,8.95
2018-05-29T14:12:44.495Z,9.82
2018-05-29T14:15:10.453Z,10.15
2018-05-29T14:17:36.416Z,11.18
2018-05-29T14:20:03.142Z,9.55
2018-05-29T14:22:29.108Z,10.15
2018-05-29T14:24:55.106Z,10.13
2018-05-29T14:27:21.067Z,10.35
2018-05-29T14:29:47.794Z,9.57
2018-05-29T14:32:13.812Z,9.52
2018-05-29T14:34:39.798Z,9.88
2018-05-29T14:37:06.511Z,10.07
2018-05-29T14:39:32.469Z,9.52
2018-05-29T14:41:59.184Z,9.82
2018-05-29T14:44:25.195Z,9.25
2018-05-29T14:46:51.198Z,9.57
2018-05-29T14:49:17.217Z,9.68
2018-05-29T14:51:43.339Z,9.27
2018-05-29T14:54:09.301Z,9.00
2018-05-29T14:56:35.250Z,9.10
2018-05-29T14:59:01.203Z,8.43
2018-05-29T15:01:27.167Z,7.65
2018-05-29T15:03:53.138Z,6.97
2018-05-29T15:06:19.120Z,7.18
2018-05-29T15:08:45.137Z,7.10
2018-05-29T15:11:11.118Z,6.80
2018-05-29T15:13:37.074Z,6.93
2018-05-29T15:16:03.056Z,7.12
2018-05-29T15:18:29.064Z,6.57
2018-05-29T15:20:55.057Z,6.50
2018-05-29T15:23:21.076Z,6.40
2018-05-29T15:25:47.063Z,6.35
2018-05-29T15:28:13.905Z,6.47
2018-05-29T15:30:39.871Z,7.50
2018-05-29T15:33:06.574Z,6.62
2018-05-29T15:35:32.538Z,6.28
2018-05-29T15:37:58.507Z,6.47
2018-05-29T15:40:24.528Z,6.68
2018-05-29T15:42:51.374Z,6.97
2018-05-29T15:45:18.131Z,6.35
2018-05-29T15:47:44.902Z,6.70
2018-05-29T15:50:10.879Z,6.43
2018-05-29T15:52:36.983Z,7.97
2018-05-29T15:55:02.958Z,7.00
2018-05-29T15:57:28.910Z,6.55
2018-05-29T15:59:55.699Z,7.07
2018-05-29T16:02:28.613Z,7.25
2018-05-29T16:04:54.580Z,7.53
2018-05-29T16:07:20.575Z,6.65
2018-05-29T16:09:46.624Z,7.45
2018-05-29T16:12:12.693Z,6.68
2018-05-29T16:14:39.505Z,7.43
2018-05-29T16:17:05.545Z,7.57
2018-05-29T16:19:31.539Z,7.20
2018-05-29T16:21:58.286Z,8.00
2018-05-29T16:24:24.350Z,6.80
2018-05-29T16:26:50.416Z,7.70
2018-05-29T16:29:16.472Z,6.62
2018-05-29T16:31:42.588Z,7.32
2018-05-29T16:34:08.630Z,7.37
2018-05-29T16:36:34.625Z,6.55
2018-05-29T16:39:01.383Z,7.55
2018-05-29T16:41:28.160Z,6.97
2018-05-29T16:43:54.220Z,7.45
2018-05-29T16:46:20.255Z,7.68
2018-05-29T16:48:46.390Z,7.25
2018-05-29T16:51:12.414Z,6.68
2018-05-29T16:53:38.427Z,7.12
2018-05-29T16:56:05.198Z,7.45
2018-05-29T16:58:31.242Z,8.30
2018-05-29T17:00:57.253Z,7.28
2018-05-29T17:03:24.023Z,7.43
2018-05-29T17:05:50.045Z,6.90
2018-05-29T17:08:16.865Z,6.72
2018-05-29T17:10:42.990Z,7.28
2018-05-29T17:13:08.984Z,6.53
2018-05-29T17:15:35.008Z,6.50
2018-05-29T17:18:01.787Z,6.40
2018-05-29T17:20:27.817Z,6.72
2018-05-29T17:22:53.850Z,5.87
2018-05-29T17:25:19.902Z,7.30
2018-05-29T17:27:46.031Z,5.68
2018-05-29T17:30:12.156Z,6.30
2018-05-29T17:32:38.151Z,5.78
2018-05-29T17:35:04.152Z,5.75
2018-05-29T17:37:30.173Z,5.90
2018-05-29T17:39:56.216Z,5.85
2018-05-29T17:42:22.195Z,5.57
2018-05-29T17:44:48.220Z,5.80
2018-05-29T17:47:14.497Z,5.12
2018-05-29T17:49:41.236Z,6.00
2018-05-29T17:52:07.960Z,5.25
2018-05-29T17:54:33.934Z,5.30
2018-05-29T17:56:59.903Z,5.80
2018-05-29T17:59:25.874Z,5.60
2018-05-29T18:01:51.857Z,4.62
2018-05-29T18:04:18.602Z,5.50
2018-05-29T18:06:45.372Z,5.53
2018-05-29T18:09:11.338Z,5.35
2018-05-29T18:11:37.310Z,5.78
2018-05-29T18:14:03.370Z,6.18
2018-05-29T18:16:29.290Z,6.25
2018-05-29T18:18:55.258Z,6.95
2018-05-29T18:21:21.214Z,6.10
2018-05-29T18:23:47.239Z,6.53
2018-05-29T18:26:13.231Z,6.45
2018-05-29T18:28:39.202Z,6.60
2018-05-29T18:31:05.177Z,5.95
2018-05-29T18:33:31.143Z,6.43
2018-05-29T18:35:57.860Z,6.28
2018-05-29T18:38:23.861Z,6.35
2018-05-29T18:40:50.567Z,5.53
2018-05-29T18:43:16.586Z,5.85
2018-05-29T18:45:42.595Z,5.90
2018-05-29T18:48:08.580Z,6.20
2018-05-29T18:50:34.547Z,6.05
2018-05-29T18:53:00.523Z,6.37
2018-05-29T18:55:26.527Z,6.57
2018-05-29T18:57:52.554Z,6.87
2018-05-29T19:00:18.649Z,6.85
2018-05-29T19:02:44.750Z,6.40
2018-05-29T19:05:10.759Z,6.05
2018-05-29T19:07:37.489Z,6.28
2018-05-29T19:10:03.455Z,6.05
2018-05-29T19:12:29.431Z,6.50
2018-05-29T19:14:55.378Z,6.37
2018-05-29T19:17:21.348Z,6.68
2018-05-29T19:19:48.114Z,5.60
2018-05-29T19:22:14.117Z,6.68
2018-05-29T19:24:40.087Z,6.33
2018-05-29T19:27:06.058Z,6.40
2018-05-29T19:29:32.020Z,6.15
2018-05-29T19:31:58.003Z,6.22
2018-05-29T19:34:23.977Z,7.20
2018-05-29T19:36:50.003Z,6.43
2018-05-29T19:39:16.018Z,6.70
2018-05-29T19:41:42.063Z,6.57
2018-05-29T19:44:08.064Z,6.75
2018-05-29T19:46:34.767Z,6.97
2018-05-29T19:49:00.747Z,7.20
2018-05-29T19:51:27.466Z,6.65
2018-05-29T19:53:53.427Z,6.73
2018-05-29T19:56:20.173Z,7.37
2018-05-29T19:58:46.924Z,7.75
2018-05-29T20:01:13.012Z,8.13
2018-05-29T20:03:38.938Z,7.57
2018-05-29T20:06:04.962Z,7.22
2018-05-29T20:08:31.010Z,7.65
2018-05-29T20:10:56.978Z,7.25
2018-05-29T20:13:22.965Z,7.37
2018-05-29T20:15:49.684Z,7.07
2018-05-29T20:18:15.709Z,5.93
2018-05-29T20:20:42.012Z,5.85
2018-05-29T20:23:07.993Z,6.47
2018-05-29T20:25:34.703Z,6.45
2018-05-29T20:28:00.670Z,6.57
2018-05-29T20:30:26.651Z,6.00
2018-05-29T20:32:52.623Z,6.22
2018-05-29T20:35:18.644Z,6.55
2018-05-29T20:37:44.623Z,6.62
2018-05-29T20:40:10.628Z,6.60
2018-05-29T20:42:36.610Z,6.55
2018-05-29T20:45:03.315Z,6.78
2018-05-29T20:47:29.274Z,6.73
2018-05-29T20:49:55.233Z,7.07
2018-05-29T20:52:21.942Z,7.73
2018-05-29T20:54:47.910Z,6.20
2018-05-29T20:57:13.875Z,6.72
2018-05-29T20:59:40.626Z,6.80
2018-05-29T21:02:06.613Z,7.13
2018-05-29T21:04:32.604Z,6.90
2018-05-29T21:06:58.576Z,6.63
2018-05-29T21:09:24.542Z,7.68
2018-05-29T21:11:50.499Z,6.95
2018-05-29T21:14:17.203Z,6.87
2018-05-29T21:16:43.178Z,5.80
2018-05-29T21:19:09.947Z,5.70
2018-05-29T21:21:35.927Z,5.30
2018-05-29T21:24:01.895Z,5.72
2018-05-29T21:26:27.862Z,6.22
2018-05-29T21:28:53.854Z,6.18
2018-05-29T21:31:19.812Z,5.13
2018-05-29T21:33:46.521Z,6.30
2018-05-29T21:36:12.536Z,5.70
2018-05-29T21:38:38.548Z,5.60
2018-05-29T21:41:04.519Z,6.00
2018-05-29T21:43:30.483Z,5.85
2018-05-29T21:45:57.915Z,5.73
2018-05-29T21:48:23.882Z,5.87
2018-05-29T21:50:49.838Z,5.45
2018-05-29T21:53:18.975Z,5.78
2018-05-29T21:55:45.036Z,6.00
2018-05-29T21:58:11.089Z,6.18
2018-05-29T22:00:37.096Z,6.32
2018-05-29T22:03:03.075Z,5.43
2018-05-29T22:05:29.114Z,5.53
2018-05-29T22:07:55.070Z,5.60
2018-05-29T22:10:21.775Z,5.47
2018-05-29T22:12:47.737Z,5.77
2018-05-29T22:15:13.695Z,6.10
2018-05-29T22:17:40.479Z,5.35
2018-05-29T22:20:06.470Z,6.13
2018-05-29T22:22:32.436Z,5.57
2018-05-29T22:24:58.414Z,6.27
2018-05-29T22:27:24.378Z,5.43
2018-05-29T22:29:50.347Z,6.47
2018-05-29T22:32:16.330Z,5.53
2018-05-29T22:34:42.367Z,6.20
2018-05-29T22:37:08.373Z,5.90
2018-05-29T22:39:34.364Z,6.05
2018-05-29T22:42:00.294Z,5.72
2018-05-29T22:44:27.003Z,5.70
2018-05-29T22:46:53.003Z,5.97
2018-05-29T22:49:18.958Z,6.40
2018-05-29T22:51:44.923Z,5.57
2018-05-29T22:54:10.907Z,6.17
2018-05-29T22:56:36.887Z,6.33
2018-05-29T22:59:03.675Z,5.97
2018-05-29T23:01:30.408Z,6.53
2018-05-29T23:03:56.371Z,5.90
2018-05-29T23:06:23.091Z,6.10
2018-05-29T23:08:49.067Z,6.13
2018-05-29T23:11:15.771Z,5.70
2018-05-29T23:13:41.819Z,6.23
2018-05-29T23:16:08.563Z,6.43
2018-05-29T23:18:34.518Z,6.03
2018-05-29T23:21:00.475Z,6.10
2018-05-29T23:23:27.176Z,6.50
2018-05-29T23:25:53.139Z,5.97
2018-05-29T23:28:19.102Z,6.40
2018-05-29T23:30:45.876Z,6.73
2018-05-29T23:33:11.878Z,6.53
2018-05-29T23:35:38.596Z,6.77
2018-05-29T23:38:04.559Z,6.60
2018-05-29T23:40:30.515Z,7.47
2018-05-29T23:42:57.937Z,6.37
2018-05-29T23:45:23.904Z,7.50
2018-05-29T23:47:50.599Z,6.43
2018-05-29T23:50:16.600Z,6.83
2018-05-29T23:52:50.178Z,7.13
2018-05-29T23:55:16.179Z,6.80
2018-05-29T23:57:42.217Z,7.07
